sensor_id;sensor_type;location;lat;lon;timestamp;P1;durP1;ratioP1;P2;durP2;ratioP2
8323;SDS011;4199;50.802;6.772;2024-01-15T00:00:28;27.77;;;14.77;;
8323;SDS011;4199;50.802;6.772;2024-01-15T00:02:54;31.57;;;14.57;;
8323;SDS011;4199;50.802;6.772;2024-01-15T00:05:21;31.13;;;15.37;;
8323;SDS011;4199;50.802;6.772;2024-01-15T00:07:47;25.70;;;14.63;;
8323;SDS011;4199;50.802;6.772;2024-01-15T00:10:14;29.30;;;14.47;;
8323;SDS011;4199;50.802;6.772;2024-01-15T00:12:40;32.20;;;15.80;;
8323;SDS011;4199;50.802;6.772;2024-01-15T00:15:07;30.50;;;15.93;;
8323;SDS011;4199;50.802;6.772;2024-01-15T00:17:33;29.57;;;14.83;;
8323;SDS011;4199;50.802;6.772;2024-01-15T00:20:00;28.77;;;15.03;;
8323;SDS011;4199;50.802;6.772;2024-01-15T00:22:27;30.57;;;16.03;;
8323;SDS011;4199;50.802;6.772;2024-01-15T00:24:54;33.73;;;15.50;;
8323;SDS011;4199;50.802;6.772;2024-01-15T00:27:20;35.13;;;16.00;;
8323;SDS011;4199;50.802;6.772;2024-01-15T00:29:47;34.13;;;16.27;;
8323;SDS011;4199;50.802;6.772;2024-01-15T00:32:14;35.13;;;16.77;;
8323;SDS011;4199;50.802;6.772;2024-01-15T00:34:41;34.40;;;17.00;;
8323;SDS011;4199;50.802;6.772;2024-01-15T00:37:07;33.03;;;17.00;;
8323;SDS011;4199;50.802;6.772;2024-01-15T00:39:34;33.50;;;16.13;;
8323;SDS011;4199;50.802;6.772;2024-01-15T00:42:00;35.60;;;16.67;;
8323;SDS011;4199;50.802;6.772;2024-01-15T00:44:27;36.73;;;16.77;;
8323;SDS011;4199;50.802;6.772;2024-01-15T00:46:53;30.17;;;15.13;;
8323;SDS011;4199;50.802;6.772;2024-01-15T00:49:20;33.17;;;15.30;;
8323;SDS011;4199;50.802;6.772;2024-01-15T00:51:47;33.23;;;15.67;;
8323;SDS011;4199;50.802;6.772;2024-01-15T00:54:13;28.83;;;14.90;;
8323;SDS011;4199;50.802;6.772;2024-01-15T00:56:40;30.27;;;15.40;;
8323;SDS011;4199;50.802;6.772;2024-01-15T00:59:06;25.90;;;14.57;;
8323;SDS011;4199;50.802;6.772;2024-01-15T01:01:36;27.37;;;14.33;;
8323;SDS011;4199;50.802;6.772;2024-01-15T01:04:19;32.60;;;15.47;;
8323;SDS011;4199;50.802;6.772;2024-01-15T01:06:46;32.43;;;15.03;;
8323;SDS011;4199;50.802;6.772;2024-01-15T01:09:13;28.33;;;14.90;;
8323;SDS011;4199;50.802;6.772;2024-01-15T01:11:40;31.00;;;15.80;;
8323;SDS011;4199;50.802;6.772;2024-01-15T01:14:06;27.10;;;14.70;;
8323;SDS011;4199;50.802;6.772;2024-01-15T01:16:33;29.53;;;15.40;;
8323;SDS011;4199;50.802;6.772;2024-01-15T01:19:05;33.47;;;16.90;;
8323;SDS011;4199;50.802;6.772;2024-01-15T01:21:33;29.90;;;16.10;;
8323;SDS011;4199;50.802;6.772;2024-01-15T01:24:00;34.87;;;17.40;;
8323;SDS011;4199;50.802;6.772;2024-01-15T01:26:27;32.17;;;17.10;;
8323;SDS011;4199;50.802;6.772;2024-01-15T01:28:54;29.13;;;17.07;;
8323;SDS011;4199;50.802;6.772;2024-01-15T01:31:21;31.37;;;16.47;;
8323;SDS011;4199;50.802;6.772;2024-01-15T01:33:48;31.73;;;16.70;;
8323;SDS011;4199;50.802;6.772;2024-01-15T01:36:15;35.90;;;16.80;;
8323;SDS011;4199;50.802;6.772;2024-01-15T01:38:41;34.23;;;17.00;;
8323;SDS011;4199;50.802;6.772;2024-01-15T01:41:08;29.77;;;15.60;;
8323;SDS011;4199;50.802;6.772;2024-01-15T01:43:34;29.80;;;16.20;;
8323;SDS011;4199;50.802;6.772;2024-01-15T01:46:01;35.60;;;16.73;;
8323;SDS011;4199;50.802;6.772;2024-01-15T01:48:29;33.97;;;17.20;;
8323;SDS011;4199;50.802;6.772;2024-01-15T01:50:58;34.87;;;18.00;;
8323;SDS011;4199;50.802;6.772;2024-01-15T01:53:26;38.97;;;18.03;;
8323;SDS011;4199;50.802;6.772;2024-01-15T01:55:53;35.67;;;18.50;;
8323;SDS011;4199;50.802;6.772;2024-01-15T01:58:19;36.80;;;18.03;;
8323;SDS011;4199;50.802;6.772;2024-01-15T02:00:46;38.57;;;18.80;;
8323;SDS011;4199;50.802;6.772;2024-01-15T02:03:13;40.47;;;19.57;;
8323;SDS011;4199;50.802;6.772;2024-01-15T02:05:40;41.63;;;19.57;;
8323;SDS011;4199;50.802;6.772;2024-01-15T02:08:06;43.40;;;19.63;;
8323;SDS011;4199;50.802;6.772;2024-01-15T02:10:33;38.37;;;18.77;;
8323;SDS011;4199;50.802;6.772;2024-01-15T02:13:00;35.90;;;18.17;;
8323;SDS011;4199;50.802;6.772;2024-01-15T02:15:26;37.00;;;17.97;;
8323;SDS011;4199;50.802;6.772;2024-01-15T02:17:59;35.10;;;18.00;;
8323;SDS011;4199;50.802;6.772;2024-01-15T02:20:27;35.63;;;17.47;;
8323;SDS011;4199;50.802;6.772;2024-01-15T02:23:00;35.47;;;17.53;;
8323;SDS011;4199;50.802;6.772;2024-01-15T02:25:30;37.07;;;18.50;;
8323;SDS011;4199;50.802;6.772;2024-01-15T02:27:56;35.47;;;17.87;;
8323;SDS011;4199;50.802;6.772;2024-01-15T02:30:23;37.63;;;19.00;;
8323;SDS011;4199;50.802;6.772;2024-01-15T02:32:51;36.83;;;20.03;;
8323;SDS011;4199;50.802;6.772;2024-01-15T02:35:18;40.67;;;20.00;;
8323;SDS011;4199;50.802;6.772;2024-01-15T02:37:44;34.43;;;17.90;;
8323;SDS011;4199;50.802;6.772;2024-01-15T02:40:11;41.00;;;19.63;;
8323;SDS011;4199;50.802;6.772;2024-01-15T02:42:37;39.90;;;19.43;;
8323;SDS011;4199;50.802;6.772;2024-01-15T02:45:04;39.80;;;19.67;;
8323;SDS011;4199;50.802;6.772;2024-01-15T02:47:31;36.87;;;19.10;;
8323;SDS011;4199;50.802;6.772;2024-01-15T02:49:57;40.37;;;20.63;;
8323;SDS011;4199;50.802;6.772;2024-01-15T02:52:24;36.97;;;18.97;;
8323;SDS011;4199;50.802;6.772;2024-01-15T02:54:50;38.53;;;19.37;;
8323;SDS011;4199;50.802;6.772;2024-01-15T02:57:17;37.70;;;18.97;;
8323;SDS011;4199;50.802;6.772;2024-01-15T02:59:44;39.47;;;18.33;;
8323;SDS011;4199;50.802;6.772;2024-01-15T03:02:10;36.30;;;20.63;;
8323;SDS011;4199;50.802;6.772;2024-01-15T03:04:37;35.17;;;18.57;;
8323;SDS011;4199;50.802;6.772;2024-01-15T03:07:03;33.07;;;18.67;;
8323;SDS011;4199;50.802;6.772;2024-01-15T03:09:30;34.57;;;18.87;;
8323;SDS011;4199;50.802;6.772;2024-01-15T03:11:56;34.07;;;18.67;;
8323;SDS011;4199;50.802;6.772;2024-01-15T03:14:23;34.47;;;18.40;;
8323;SDS011;4199;50.802;6.772;2024-01-15T03:16:52;31.47;;;18.17;;
8323;SDS011;4199;50.802;6.772;2024-01-15T03:19:19;33.93;;;18.77;;
8323;SDS011;4199;50.802;6.772;2024-01-15T03:21:46;32.67;;;18.03;;
8323;SDS011;4199;50.802;6.772;2024-01-15T03:24:12;32.03;;;18.00;;
8323;SDS011;4199;50.802;6.772;2024-01-15T03:26:39;33.73;;;18.17;;
8323;SDS011;4199;50.802;6.772;2024-01-15T03:29:05;32.53;;;17.33;;
8323;SDS011;4199;50.802;6.772;2024-01-15T03:31:33;31.27;;;16.97;;
8323;SDS011;4199;50.802;6.772;2024-01-15T03:34:00;33.90;;;18.03;;
8323;SDS011;4199;50.802;6.772;2024-01-15T03:36:27;33.60;;;18.03;;
8323;SDS011;4199;50.802;6.772;2024-01-15T03:38:53;30.73;;;17.13;;
8323;SDS011;4199;50.802;6.772;2024-01-15T03:41:20;35.77;;;18.67;;
8323;SDS011;4199;50.802;6.772;2024-01-15T03:43:46;34.53;;;19.40;;
8323;SDS011;4199;50.802;6.772;2024-01-15T03:46:13;35.50;;;19.20;;
8323;SDS011;4199;50.802;6.772;2024-01-15T03:48:39;33.57;;;17.93;;
8323;SDS011;4199;50.802;6.772;2024-01-15T03:51:06;36.13;;;19.97;;
8323;SDS011;4199;50.802;6.772;2024-01-15T03:53:32;31.33;;;18.13;;
8323;SDS011;4199;50.802;6.772;2024-01-15T03:55:59;32.57;;;17.97;;
8323;SDS011;4199;50.802;6.772;2024-01-15T03:58:26;31.20;;;18.33;;
8323;SDS011;4199;50.802;6.772;2024-01-15T04:00:52;31.93;;;17.27;;
8323;SDS011;4199;50.802;6.772;2024-01-15T04:03:19;30.70;;;17.20;;
8323;SDS011;4199;50.802;6.772;2024-01-15T04:05:45;29.67;;;17.00;;
8323;SDS011;4199;50.802;6.772;2024-01-15T04:08:12;30.27;;;16.33;;
8323;SDS011;4199;50.802;6.772;2024-01-15T04:10:38;31.03;;;16.97;;
8323;SDS011;4199;50.802;6.772;2024-01-15T04:13:05;31.80;;;17.47;;
8323;SDS011;4199;50.802;6.772;2024-01-15T04:15:31;28.83;;;16.80;;
8323;SDS011;4199;50.802;6.772;2024-01-15T04:17:58;33.00;;;17.03;;
8323;SDS011;4199;50.802;6.772;2024-01-15T04:20:24;27.80;;;15.23;;
8323;SDS011;4199;50.802;6.772;2024-01-15T04:22:51;25.47;;;14.23;;
8323;SDS011;4199;50.802;6.772;2024-01-15T04:25:18;25.13;;;14.50;;
8323;SDS011;4199;50.802;6.772;2024-01-15T04:27:45;23.70;;;14.23;;
8323;SDS011;4199;50.802;6.772;2024-01-15T04:30:11;25.83;;;14.97;;
8323;SDS011;4199;50.802;6.772;2024-01-15T04:32:38;25.40;;;14.97;;
8323;SDS011;4199;50.802;6.772;2024-01-15T04:35:05;24.30;;;14.87;;
8323;SDS011;4199;50.802;6.772;2024-01-15T04:37:32;25.00;;;15.33;;
8323;SDS011;4199;50.802;6.772;2024-01-15T04:39:58;26.90;;;16.10;;
8323;SDS011;4199;50.802;6.772;2024-01-15T04:42:25;25.23;;;15.10;;
8323;SDS011;4199;50.802;6.772;2024-01-15T04:44:51;23.37;;;14.50;;
8323;SDS011;4199;50.802;6.772;2024-01-15T04:47:18;26.00;;;15.60;;
8323;SDS011;4199;50.802;6.772;2024-01-15T04:49:44;26.80;;;16.00;;
8323;SDS011;4199;50.802;6.772;2024-01-15T04:52:11;28.53;;;15.40;;
8323;SDS011;4199;50.802;6.772;2024-01-15T04:54:38;24.57;;;14.27;;
8323;SDS011;4199;50.802;6.772;2024-01-15T04:57:05;30.97;;;16.70;;
8323;SDS011;4199;50.802;6.772;2024-01-15T04:59:32;29.87;;;16.53;;
8323;SDS011;4199;50.802;6.772;2024-01-15T05:01:58;34.27;;;20.17;;
8323;SDS011;4199;50.802;6.772;2024-01-15T05:04:25;36.03;;;16.97;;
8323;SDS011;4199;50.802;6.772;2024-01-15T05:06:51;29.47;;;16.47;;
8323;SDS011;4199;50.802;6.772;2024-01-15T05:09:36;31.33;;;17.43;;
8323;SDS011;4199;50.802;6.772;2024-01-15T05:12:03;33.43;;;18.87;;
8323;SDS011;4199;50.802;6.772;2024-01-15T05:14:30;34.80;;;18.60;;
8323;SDS011;4199;50.802;6.772;2024-01-15T05:16:56;31.37;;;18.70;;
8323;SDS011;4199;50.802;6.772;2024-01-15T05:19:23;34.80;;;18.70;;
8323;SDS011;4199;50.802;6.772;2024-01-15T05:21:49;36.27;;;19.83;;
8323;SDS011;4199;50.802;6.772;2024-01-15T05:24:16;35.90;;;19.27;;
8323;SDS011;4199;50.802;6.772;2024-01-15T05:26:43;34.93;;;20.07;;
8323;SDS011;4199;50.802;6.772;2024-01-15T05:29:09;36.40;;;19.83;;
8323;SDS011;4199;50.802;6.772;2024-01-15T05:31:36;35.23;;;19.10;;
8323;SDS011;4199;50.802;6.772;2024-01-15T05:34:03;46.93;;;27.47;;
8323;SDS011;4199;50.802;6.772;2024-01-15T05:36:30;33.57;;;19.03;;
8323;SDS011;4199;50.802;6.772;2024-01-15T05:38:56;34.80;;;18.40;;
8323;SDS011;4199;50.802;6.772;2024-01-15T05:41:23;30.93;;;18.30;;
8323;SDS011;4199;50.802;6.772;2024-01-15T05:43:49;33.97;;;19.80;;
8323;SDS011;4199;50.802;6.772;2024-01-15T05:46:16;31.27;;;19.10;;
8323;SDS011;4199;50.802;6.772;2024-01-15T05:48:42;32.37;;;18.87;;
8323;SDS011;4199;50.802;6.772;2024-01-15T05:51:09;31.37;;;19.20;;
8323;SDS011;4199;50.802;6.772;2024-01-15T05:53:36;31.80;;;17.77;;
8323;SDS011;4199;50.802;6.772;2024-01-15T05:56:06;32.23;;;18.77;;
8323;SDS011;4199;50.802;6.772;2024-01-15T05:58:32;31.83;;;19.70;;
8323;SDS011;4199;50.802;6.772;2024-01-15T06:00:59;32.70;;;19.93;;
8323;SDS011;4199;50.802;6.772;2024-01-15T06:03:26;33.03;;;19.10;;
8323;SDS011;4199;50.802;6.772;2024-01-15T06:05:53;34.73;;;20.13;;
8323;SDS011;4199;50.802;6.772;2024-01-15T06:08:19;36.30;;;20.40;;
8323;SDS011;4199;50.802;6.772;2024-01-15T06:10:47;32.90;;;19.13;;
8323;SDS011;4199;50.802;6.772;2024-01-15T06:13:13;33.57;;;20.53;;
8323;SDS011;4199;50.802;6.772;2024-01-15T06:15:40;36.93;;;21.60;;
8323;SDS011;4199;50.802;6.772;2024-01-15T06:18:06;36.50;;;20.37;;
8323;SDS011;4199;50.802;6.772;2024-01-15T06:20:33;31.77;;;19.73;;
8323;SDS011;4199;50.802;6.772;2024-01-15T06:23:00;33.87;;;20.13;;
8323;SDS011;4199;50.802;6.772;2024-01-15T06:25:26;35.27;;;20.93;;
8323;SDS011;4199;50.802;6.772;2024-01-15T06:27:53;37.13;;;21.53;;
8323;SDS011;4199;50.802;6.772;2024-01-15T06:30:19;42.93;;;22.10;;
8323;SDS011;4199;50.802;6.772;2024-01-15T06:32:46;41.27;;;22.30;;
8323;SDS011;4199;50.802;6.772;2024-01-15T06:35:13;39.60;;;21.87;;
8323;SDS011;4199;50.802;6.772;2024-01-15T06:37:39;45.10;;;23.80;;
8323;SDS011;4199;50.802;6.772;2024-01-15T06:40:06;89.60;;;49.40;;
8323;SDS011;4199;50.802;6.772;2024-01-15T06:42:38;67.90;;;38.70;;
8323;SDS011;4199;50.802;6.772;2024-01-15T06:45:04;46.87;;;24.83;;
8323;SDS011;4199;50.802;6.772;2024-01-15T06:47:31;42.07;;;23.43;;
8323;SDS011;4199;50.802;6.772;2024-01-15T06:49:58;48.30;;;24.37;;
8323;SDS011;4199;50.802;6.772;2024-01-15T06:52:25;49.87;;;24.03;;
8323;SDS011;4199;50.802;6.772;2024-01-15T06:54:52;46.23;;;24.87;;
8323;SDS011;4199;50.802;6.772;2024-01-15T06:57:18;47.80;;;24.40;;
8323;SDS011;4199;50.802;6.772;2024-01-15T06:59:46;42.10;;;23.63;;
8323;SDS011;4199;50.802;6.772;2024-01-15T07:02:12;46.07;;;24.90;;
8323;SDS011;4199;50.802;6.772;2024-01-15T07:04:39;42.27;;;23.47;;
8323;SDS011;4199;50.802;6.772;2024-01-15T07:07:09;47.67;;;23.30;;
8323;SDS011;4199;50.802;6.772;2024-01-15T07:09:35;45.40;;;22.70;;
8323;SDS011;4199;50.802;6.772;2024-01-15T07:12:02;39.33;;;22.00;;
8323;SDS011;4199;50.802;6.772;2024-01-15T07:14:48;84.77;;;45.80;;
8323;SDS011;4199;50.802;6.772;2024-01-15T07:17:33;42.13;;;23.43;;
8323;SDS011;4199;50.802;6.772;2024-01-15T07:20:00;40.17;;;21.70;;
8323;SDS011;4199;50.802;6.772;2024-01-15T07:22:27;35.43;;;20.13;;
8323;SDS011;4199;50.802;6.772;2024-01-15T07:24:54;36.60;;;20.97;;
8323;SDS011;4199;50.802;6.772;2024-01-15T07:27:21;40.30;;;21.37;;
8323;SDS011;4199;50.802;6.772;2024-01-15T07:29:47;34.23;;;19.97;;
8323;SDS011;4199;50.802;6.772;2024-01-15T07:32:15;35.60;;;18.53;;
8323;SDS011;4199;50.802;6.772;2024-01-15T07:34:42;28.37;;;17.50;;
8323;SDS011;4199;50.802;6.772;2024-01-15T07:37:08;32.30;;;17.13;;
8323;SDS011;4199;50.802;6.772;2024-01-15T07:39:35;32.03;;;18.00;;
8323;SDS011;4199;50.802;6.772;2024-01-15T07:42:02;32.17;;;16.33;;
8323;SDS011;4199;50.802;6.772;2024-01-15T07:44:28;109.83;;;64.57;;
8323;SDS011;4199;50.802;6.772;2024-01-15T07:46:55;35.27;;;19.67;;
8323;SDS011;4199;50.802;6.772;2024-01-15T07:49:21;29.60;;;15.97;;
8323;SDS011;4199;50.802;6.772;2024-01-15T07:51:49;25.43;;;15.73;;
8323;SDS011;4199;50.802;6.772;2024-01-15T07:54:16;31.50;;;17.13;;
8323;SDS011;4199;50.802;6.772;2024-01-15T07:59:29;34.57;;;15.73;;
8323;SDS011;4199;50.802;6.772;2024-01-15T08:01:55;28.53;;;16.60;;
8323;SDS011;4199;50.802;6.772;2024-01-15T08:04:22;25.77;;;15.10;;
8323;SDS011;4199;50.802;6.772;2024-01-15T08:06:49;29.37;;;15.80;;
8323;SDS011;4199;50.802;6.772;2024-01-15T08:09:16;30.30;;;17.63;;
8323;SDS011;4199;50.802;6.772;2024-01-15T08:11:43;80.60;;;52.23;;
8323;SDS011;4199;50.802;6.772;2024-01-15T08:14:09;26.93;;;17.20;;
8323;SDS011;4199;50.802;6.772;2024-01-15T08:16:36;29.63;;;16.83;;
8323;SDS011;4199;50.802;6.772;2024-01-15T08:19:03;31.60;;;17.33;;
8323;SDS011;4199;50.802;6.772;2024-01-15T08:21:30;28.03;;;15.73;;
8323;SDS011;4199;50.802;6.772;2024-01-15T08:23:58;27.53;;;16.40;;
8323;SDS011;4199;50.802;6.772;2024-01-15T08:26:25;27.57;;;16.40;;
8323;SDS011;4199;50.802;6.772;2024-01-15T08:28:52;31.10;;;17.73;;
8323;SDS011;4199;50.802;6.772;2024-01-15T08:31:19;30.90;;;17.17;;
8323;SDS011;4199;50.802;6.772;2024-01-15T08:33:45;28.87;;;17.00;;
8323;SDS011;4199;50.802;6.772;2024-01-15T08:36:12;30.00;;;16.10;;
8323;SDS011;4199;50.802;6.772;2024-01-15T08:38:39;28.63;;;16.23;;
8323;SDS011;4199;50.802;6.772;2024-01-15T08:41:05;28.07;;;16.27;;
8323;SDS011;4199;50.802;6.772;2024-01-15T08:43:32;31.63;;;15.97;;
8323;SDS011;4199;50.802;6.772;2024-01-15T08:45:58;64.93;;;38.37;;
8323;SDS011;4199;50.802;6.772;2024-01-15T08:48:25;38.13;;;22.37;;
8323;SDS011;4199;50.802;6.772;2024-01-15T08:50:55;27.33;;;16.47;;
8323;SDS011;4199;50.802;6.772;2024-01-15T08:53:23;27.87;;;16.73;;
8323;SDS011;4199;50.802;6.772;2024-01-15T08:55:49;26.87;;;14.67;;
8323;SDS011;4199;50.802;6.772;2024-01-15T08:58:17;29.03;;;15.53;;
8323;SDS011;4199;50.802;6.772;2024-01-15T09:00:44;26.77;;;15.43;;
8323;SDS011;4199;50.802;6.772;2024-01-15T09:03:11;25.70;;;14.77;;
8323;SDS011;4199;50.802;6.772;2024-01-15T09:05:38;27.10;;;16.47;;
8323;SDS011;4199;50.802;6.772;2024-01-15T09:08:05;22.40;;;15.60;;
8323;SDS011;4199;50.802;6.772;2024-01-15T09:10:32;22.63;;;12.60;;
8323;SDS011;4199;50.802;6.772;2024-01-15T09:12:58;21.20;;;12.80;;
8323;SDS011;4199;50.802;6.772;2024-01-15T09:15:26;19.23;;;12.27;;
8323;SDS011;4199;50.802;6.772;2024-01-15T09:17:54;23.73;;;13.73;;
8323;SDS011;4199;50.802;6.772;2024-01-15T09:20:21;19.33;;;12.40;;
8323;SDS011;4199;50.802;6.772;2024-01-15T09:22:47;39.13;;;25.43;;
8323;SDS011;4199;50.802;6.772;2024-01-15T09:25:14;18.90;;;12.17;;
8323;SDS011;4199;50.802;6.772;2024-01-15T09:27:41;21.23;;;12.47;;
8323;SDS011;4199;50.802;6.772;2024-01-15T09:30:08;17.47;;;11.23;;
8323;SDS011;4199;50.802;6.772;2024-01-15T09:32:36;15.73;;;11.47;;
8323;SDS011;4199;50.802;6.772;2024-01-15T09:35:03;15.80;;;10.10;;
8323;SDS011;4199;50.802;6.772;2024-01-15T09:37:30;19.90;;;11.87;;
8323;SDS011;4199;50.802;6.772;2024-01-15T09:40:18;18.20;;;11.77;;
8323;SDS011;4199;50.802;6.772;2024-01-15T09:42:46;17.83;;;12.30;;
8323;SDS011;4199;50.802;6.772;2024-01-15T09:45:13;19.03;;;12.30;;
8323;SDS011;4199;50.802;6.772;2024-01-15T09:47:47;20.07;;;12.63;;
8323;SDS011;4199;50.802;6.772;2024-01-15T09:50:14;18.80;;;12.03;;
8323;SDS011;4199;50.802;6.772;2024-01-15T09:52:43;18.83;;;12.17;;
8323;SDS011;4199;50.802;6.772;2024-01-15T09:55:11;15.80;;;11.90;;
8323;SDS011;4199;50.802;6.772;2024-01-15T09:57:39;19.27;;;11.70;;
8323;SDS011;4199;50.802;6.772;2024-01-15T10:00:05;15.80;;;10.97;;
8323;SDS011;4199;50.802;6.772;2024-01-15T10:02:52;16.10;;;11.43;;
8323;SDS011;4199;50.802;6.772;2024-01-15T10:05:19;18.53;;;12.13;;
8323;SDS011;4199;50.802;6.772;2024-01-15T10:07:45;17.53;;;11.80;;
8323;SDS011;4199;50.802;6.772;2024-01-15T10:10:12;18.67;;;11.67;;
8323;SDS011;4199;50.802;6.772;2024-01-15T10:12:39;23.07;;;13.23;;
8323;SDS011;4199;50.802;6.772;2024-01-15T10:15:08;19.47;;;12.47;;
8323;SDS011;4199;50.802;6.772;2024-01-15T10:17:36;20.33;;;12.30;;
8323;SDS011;4199;50.802;6.772;2024-01-15T10:20:10;20.40;;;12.87;;
8323;SDS011;4199;50.802;6.772;2024-01-15T10:22:41;22.57;;;12.93;;
8323;SDS011;4199;50.802;6.772;2024-01-15T10:25:13;18.03;;;12.30;;
8323;SDS011;4199;50.802;6.772;2024-01-15T10:27:40;16.57;;;12.10;;
8323;SDS011;4199;50.802;6.772;2024-01-15T10:30:10;15.27;;;11.77;;
8323;SDS011;4199;50.802;6.772;2024-01-15T10:32:38;16.83;;;11.83;;
8323;SDS011;4199;50.802;6.772;2024-01-15T10:35:06;15.67;;;10.73;;
8323;SDS011;4199;50.802;6.772;2024-01-15T10:37:33;13.17;;;10.70;;
8323;SDS011;4199;50.802;6.772;2024-01-15T10:40:01;15.90;;;10.87;;
8323;SDS011;4199;50.802;6.772;2024-01-15T10:42:31;16.97;;;11.47;;
8323;SDS011;4199;50.802;6.772;2024-01-15T10:44:58;14.10;;;10.47;;
8323;SDS011;4199;50.802;6.772;2024-01-15T10:47:24;16.83;;;11.90;;
8323;SDS011;4199;50.802;6.772;2024-01-15T10:49:51;19.73;;;12.57;;
8323;SDS011;4199;50.802;6.772;2024-01-15T10:52:19;16.93;;;12.53;;
8323;SDS011;4199;50.802;6.772;2024-01-15T10:54:46;21.47;;;14.27;;
8323;SDS011;4199;50.802;6.772;2024-01-15T10:57:13;19.83;;;14.13;;
8323;SDS011;4199;50.802;6.772;2024-01-15T10:59:42;20.43;;;13.70;;
8323;SDS011;4199;50.802;6.772;2024-01-15T11:02:12;21.50;;;13.67;;
8323;SDS011;4199;50.802;6.772;2024-01-15T11:04:39;22.93;;;14.07;;
8323;SDS011;4199;50.802;6.772;2024-01-15T11:07:06;46.17;;;30.70;;
8323;SDS011;4199;50.802;6.772;2024-01-15T11:09:33;34.20;;;21.27;;
8323;SDS011;4199;50.802;6.772;2024-01-15T11:12:11;22.10;;;15.30;;
8323;SDS011;4199;50.802;6.772;2024-01-15T11:14:51;22.07;;;14.63;;
8323;SDS011;4199;50.802;6.772;2024-01-15T11:17:18;23.73;;;14.33;;
8323;SDS011;4199;50.802;6.772;2024-01-15T11:19:47;20.90;;;14.07;;
8323;SDS011;4199;50.802;6.772;2024-01-15T11:22:47;21.23;;;14.83;;
8323;SDS011;4199;50.802;6.772;2024-01-15T11:25:15;22.50;;;14.17;;
8323;SDS011;4199;50.802;6.772;2024-01-15T11:27:46;18.63;;;13.37;;
8323;SDS011;4199;50.802;6.772;2024-01-15T11:30:14;20.17;;;13.13;;
8323;SDS011;4199;50.802;6.772;2024-01-15T11:32:41;22.13;;;14.37;;
8323;SDS011;4199;50.802;6.772;2024-01-15T11:35:09;22.77;;;14.40;;
8323;SDS011;4199;50.802;6.772;2024-01-15T11:37:56;20.67;;;13.90;;
8323;SDS011;4199;50.802;6.772;2024-01-15T11:43:00;33.53;;;23.23;;
8323;SDS011;4199;50.802;6.772;2024-01-15T11:45:27;22.47;;;13.43;;
8323;SDS011;4199;50.802;6.772;2024-01-15T11:55:52;16.97;;;10.67;;
8323;SDS011;4199;50.802;6.772;2024-01-15T11:58:24;18.17;;;10.07;;
8323;SDS011;4199;50.802;6.772;2024-01-15T12:00:51;20.33;;;10.17;;
8323;SDS011;4199;50.802;6.772;2024-01-15T12:03:22;16.90;;;10.17;;
8323;SDS011;4199;50.802;6.772;2024-01-15T12:05:51;15.30;;;9.37;;
8323;SDS011;4199;50.802;6.772;2024-01-15T12:08:22;18.00;;;9.23;;
8323;SDS011;4199;50.802;6.772;2024-01-15T12:10:49;15.77;;;9.20;;
8323;SDS011;4199;50.802;6.772;2024-01-15T12:13:16;14.13;;;8.70;;
8323;SDS011;4199;50.802;6.772;2024-01-15T12:15:46;15.67;;;8.50;;
8323;SDS011;4199;50.802;6.772;2024-01-15T12:18:15;16.40;;;7.93;;
8323;SDS011;4199;50.802;6.772;2024-01-15T12:20:43;12.83;;;7.20;;
8323;SDS011;4199;50.802;6.772;2024-01-15T12:23:13;11.23;;;7.17;;
8323;SDS011;4199;50.802;6.772;2024-01-15T12:25:59;9.73;;;6.47;;
8323;SDS011;4199;50.802;6.772;2024-01-15T12:28:27;11.83;;;6.27;;
8323;SDS011;4199;50.802;6.772;2024-01-15T12:30:55;12.10;;;7.17;;
8323;SDS011;4199;50.802;6.772;2024-01-15T12:33:22;12.97;;;6.63;;
8323;SDS011;4199;50.802;6.772;2024-01-15T12:35:48;11.03;;;6.37;;
8323;SDS011;4199;50.802;6.772;2024-01-15T12:38:15;10.40;;;5.67;;
8323;SDS011;4199;50.802;6.772;2024-01-15T12:40:45;9.53;;;5.53;;
8323;SDS011;4199;50.802;6.772;2024-01-15T12:43:14;10.93;;;5.60;;
8323;SDS011;4199;50.802;6.772;2024-01-15T12:45:40;12.73;;;5.80;;
8323;SDS011;4199;50.802;6.772;2024-01-15T12:48:07;11.43;;;5.87;;
8323;SDS011;4199;50.802;6.772;2024-01-15T12:50:34;15.20;;;5.90;;
8323;SDS011;4199;50.802;6.772;2024-01-15T12:53:02;12.07;;;5.93;;
8323;SDS011;4199;50.802;6.772;2024-01-15T12:55:28;13.50;;;7.27;;
8323;SDS011;4199;50.802;6.772;2024-01-15T12:57:55;13.87;;;6.40;;
8323;SDS011;4199;50.802;6.772;2024-01-15T13:00:22;9.50;;;6.33;;
8323;SDS011;4199;50.802;6.772;2024-01-15T13:02:50;8.67;;;5.80;;
8323;SDS011;4199;50.802;6.772;2024-01-15T13:05:17;14.57;;;6.10;;
8323;SDS011;4199;50.802;6.772;2024-01-15T13:08:03;11.13;;;5.17;;
8323;SDS011;4199;50.802;6.772;2024-01-15T13:10:30;9.00;;;5.10;;
8323;SDS011;4199;50.802;6.772;2024-01-15T13:12:57;11.50;;;5.73;;
8323;SDS011;4199;50.802;6.772;2024-01-15T13:15:24;10.30;;;5.90;;
8323;SDS011;4199;50.802;6.772;2024-01-15T13:17:51;11.20;;;5.60;;
8323;SDS011;4199;50.802;6.772;2024-01-15T13:20:32;10.10;;;6.00;;
8323;SDS011;4199;50.802;6.772;2024-01-15T13:22:59;11.13;;;6.33;;
8323;SDS011;4199;50.802;6.772;2024-01-15T13:25:25;10.90;;;6.30;;
8323;SDS011;4199;50.802;6.772;2024-01-15T13:27:52;9.43;;;6.37;;
8323;SDS011;4199;50.802;6.772;2024-01-15T13:30:18;12.50;;;6.87;;
8323;SDS011;4199;50.802;6.772;2024-01-15T13:32:45;13.10;;;7.13;;
8323;SDS011;4199;50.802;6.772;2024-01-15T13:35:13;9.80;;;6.77;;
8323;SDS011;4199;50.802;6.772;2024-01-15T13:37:40;10.30;;;7.03;;
8323;SDS011;4199;50.802;6.772;2024-01-15T13:40:09;9.43;;;6.07;;
8323;SDS011;4199;50.802;6.772;2024-01-15T13:42:42;11.57;;;6.33;;
8323;SDS011;4199;50.802;6.772;2024-01-15T13:45:09;8.93;;;6.00;;
8323;SDS011;4199;50.802;6.772;2024-01-15T13:47:35;8.47;;;5.93;;
8323;SDS011;4199;50.802;6.772;2024-01-15T13:50:03;8.97;;;5.80;;
8323;SDS011;4199;50.802;6.772;2024-01-15T13:52:30;11.30;;;6.27;;
8323;SDS011;4199;50.802;6.772;2024-01-15T13:55:15;10.53;;;5.80;;
8323;SDS011;4199;50.802;6.772;2024-01-15T13:57:42;7.23;;;5.30;;
8323;SDS011;4199;50.802;6.772;2024-01-15T14:00:09;7.90;;;5.13;;
8323;SDS011;4199;50.802;6.772;2024-01-15T14:02:39;9.30;;;4.37;;
8323;SDS011;4199;50.802;6.772;2024-01-15T14:05:05;7.83;;;4.70;;
8323;SDS011;4199;50.802;6.772;2024-01-15T14:07:32;9.80;;;4.90;;
8323;SDS011;4199;50.802;6.772;2024-01-15T14:09:59;7.87;;;5.40;;
8323;SDS011;4199;50.802;6.772;2024-01-15T14:12:25;6.20;;;5.03;;
8323;SDS011;4199;50.802;6.772;2024-01-15T14:14:53;8.20;;;5.30;;
8323;SDS011;4199;50.802;6.772;2024-01-15T14:17:19;6.13;;;5.00;;
8323;SDS011;4199;50.802;6.772;2024-01-15T14:19:46;7.27;;;5.30;;
8323;SDS011;4199;50.802;6.772;2024-01-15T14:22:12;5.37;;;4.87;;
8323;SDS011;4199;50.802;6.772;2024-01-15T14:24:39;9.87;;;7.03;;
8323;SDS011;4199;50.802;6.772;2024-01-15T14:27:05;7.03;;;4.50;;
8323;SDS011;4199;50.802;6.772;2024-01-15T14:29:33;7.50;;;5.20;;
8323;SDS011;4199;50.802;6.772;2024-01-15T14:31:59;5.83;;;4.43;;
8323;SDS011;4199;50.802;6.772;2024-01-15T14:34:26;6.50;;;4.20;;
8323;SDS011;4199;50.802;6.772;2024-01-15T14:36:53;7.73;;;4.57;;
8323;SDS011;4199;50.802;6.772;2024-01-15T14:39:21;5.40;;;4.20;;
8323;SDS011;4199;50.802;6.772;2024-01-15T14:41:49;6.67;;;4.17;;
8323;SDS011;4199;50.802;6.772;2024-01-15T14:44:15;6.67;;;4.47;;
8323;SDS011;4199;50.802;6.772;2024-01-15T14:46:42;9.07;;;4.73;;
8323;SDS011;4199;50.802;6.772;2024-01-15T14:49:08;6.93;;;4.60;;
8323;SDS011;4199;50.802;6.772;2024-01-15T14:51:35;7.03;;;4.67;;
8323;SDS011;4199;50.802;6.772;2024-01-15T14:54:01;6.63;;;4.73;;
8323;SDS011;4199;50.802;6.772;2024-01-15T14:56:28;6.33;;;4.53;;
8323;SDS011;4199;50.802;6.772;2024-01-15T14:58:55;6.30;;;4.67;;
8323;SDS011;4199;50.802;6.772;2024-01-15T15:01:21;8.40;;;4.90;;
8323;SDS011;4199;50.802;6.772;2024-01-15T15:03:49;6.07;;;4.53;;
8323;SDS011;4199;50.802;6.772;2024-01-15T15:06:16;5.67;;;4.30;;
8323;SDS011;4199;50.802;6.772;2024-01-15T15:08:49;5.90;;;4.73;;